Time;durP1;ratioP1;P1;durP2;ratioP2;P2;SDS_P1;SDS_P2;PMS_P1;PMS_P2;Temp;Humidity;BMP_temperature;BMP_pressure;BME280_temperature;BME280_humidity;BME280_pressure;Samples;Min_cycle;Max_cycle;Signal;HPM_P1;HPM_P2
2023/09/22 00:00:43;;;;;;;40.73;11.53;;;14.50;99.90;;;;;;5072654;28;20096;-67
2023/09/22 00:03:10;;;;;;;53.93;11.57;;;14.50;99.90;;;;;;5074824;28;20127;-67
2023/09/22 00:05:36;;;;;;;20.17;11.80;;;14.40;99.90;;;;;;5076658;28;20052;-66
2023/09/22 00:08:04;;;;;;;40.60;11.83;;;14.40;99.90;;;;;;5076489;28;20048;-67
2023/09/22 00:10:30;;;;;;;38.70;12.23;;;14.40;99.90;;;;;;5077340;28;20051;-67
2023/09/22 00:12:56;;;;;;;27.60;12.30;;;14.40;99.90;;;;;;5076551;28;20102;-66
2023/09/22 00:15:21;;;;;;;18.40;12.13;;;14.40;99.90;;;;;;5076965;28;20366;-66
2023/09/22 00:17:47;;;;;;;16.10;12.27;;;14.40;99.90;;;;;;5076578;28;20097;-67
2023/09/22 00:20:15;;;;;;;17.73;12.67;;;14.40;99.90;;;;;;5076399;28;20131;-66
2023/09/22 00:22:43;;;;;;;25.77;13.37;;;14.40;99.90;;;;;;5076285;28;20048;-66
2023/09/22 00:25:10;;;;;;;20.00;13.97;;;14.40;99.90;;;;;;5075577;28;20098;-66
2023/09/22 00:27:36;;;;;;;20.33;13.17;;;14.40;99.90;;;;;;5076216;28;20044;-66
2023/09/22 00:30:04;;;;;;;19.00;14.37;;;14.40;99.90;;;;;;5076194;28;20487;-66
2023/09/22 00:32:29;;;;;;;21.20;14.70;;;14.50;99.90;;;;;;5076737;28;20213;-66
2023/09/22 00:34:55;;;;;;;19.93;15.40;;;14.50;99.90;;;;;;5076384;28;20075;-66
2023/09/22 00:37:22;;;;;;;24.00;16.70;;;14.40;99.90;;;;;;5076107;28;20040;-66
2023/09/22 00:39:47;;;;;;;22.73;16.93;;;14.40;99.90;;;;;;5075394;28;20045;-66
2023/09/22 00:42:13;;;;;;;23.57;16.23;;;14.40;99.90;;;;;;5076030;28;20121;-66
2023/09/22 00:44:39;;;;;;;24.93;17.33;;;14.40;99.90;;;;;;5075045;28;20044;-66
2023/09/22 00:47:09;;;;;;;25.50;17.80;;;14.40;99.90;;;;;;5075842;28;20102;-66
2023/09/22 00:49:35;;;;;;;23.23;16.70;;;14.40;99.90;;;;;;5076495;28;20071;-66
2023/09/22 00:52:02;;;;;;;26.37;18.20;;;14.40;99.90;;;;;;5075787;28;20036;-66
2023/09/22 00:54:29;;;;;;;24.67;18.63;;;14.40;99.90;;;;;;5076623;28;20425;-67
2023/09/22 00:56:55;;;;;;;28.73;20.33;;;14.50;99.90;;;;;;5074495;28;20408;-67
2023/09/22 00:59:21;;;;;;;24.57;19.50;;;14.40;99.90;;;;;;5075682;28;20047;-66
2023/09/22 01:01:47;;;;;;;25.17;19.60;;;14.40;99.90;;;;;;5075936;28;20056;-66
2023/09/22 01:04:13;;;;;;;27.03;20.37;;;14.40;99.90;;;;;;5075655;28;20135;-66
2023/09/22 01:06:42;;;;;;;25.53;19.70;;;14.40;99.90;;;;;;5075520;28;20040;-66
2023/09/22 01:09:09;;;;;;;28.50;20.83;;;14.40;99.90;;;;;;5075502;28;20488;-66
2023/09/22 01:11:35;;;;;;;26.80;20.57;;;14.40;99.90;;;;;;5075476;28;20127;-66
2023/09/22 01:14:02;;;;;;;28.20;21.43;;;14.40;99.90;;;;;;5075178;28;20044;-66
2023/09/22 01:16:29;;;;;;;29.97;21.57;;;14.40;99.90;;;;;;5074344;28;20457;-66
2023/09/22 01:18:55;;;;;;;29.63;22.07;;;14.40;99.90;;;;;;5074048;28;20435;-69
2023/09/22 01:21:29;;;;;;;28.77;22.33;;;14.40;99.90;;;;;;5075151;28;20109;-66
2023/09/22 01:23:55;;;;;;;30.97;21.60;;;14.40;99.90;;;;;;5075446;28;20098;-68
2023/09/22 01:26:23;;;;;;;26.90;21.40;;;14.40;99.90;;;;;;5074988;28;20504;-66
2023/09/22 01:28:49;;;;;;;27.27;21.33;;;14.40;99.90;;;;;;5075058;28;20053;-66
2023/09/22 01:31:16;;;;;;;28.27;22.13;;;14.40;99.90;;;;;;5074981;28;20040;-66
2023/09/22 01:33:42;;;;;;;30.80;23.67;;;14.40;99.90;;;;;;5075033;28;20086;-66
2023/09/22 01:36:08;;;;;;;31.23;22.07;;;14.40;99.90;;;;;;5075159;28;20041;-66
2023/09/22 01:38:33;;;;;;;30.50;22.70;;;14.40;99.90;;;;;;5075190;28;20056;-66
2023/09/22 01:40:59;;;;;;;34.30;24.10;;;14.40;99.90;;;;;;5074563;28;20048;-67
2023/09/22 01:43:25;;;;;;;31.60;22.77;;;14.40;99.90;;;;;;5075337;28;20045;-66
2023/09/22 01:45:51;;;;;;;30.50;22.37;;;14.40;99.90;;;;;;5074771;28;20048;-66
2023/09/22 01:48:16;;;;;;;31.97;22.83;;;14.40;99.90;;;;;;5074626;28;20105;-66
2023/09/22 01:50:43;;;;;;;38.03;23.67;;;14.40;99.90;;;;;;5073466;28;20131;-66
2023/09/22 01:53:10;;;;;;;34.40;24.60;;;14.40;99.90;;;;;;5074614;28;20052;-67
2023/09/22 01:55:38;;;;;;;35.33;23.83;;;14.40;99.90;;;;;;5074479;28;20095;-66
2023/09/22 01:58:04;;;;;;;34.17;24.37;;;14.50;99.90;;;;;;5074331;28;20054;-67
2023/09/22 02:00:31;;;;;;;32.17;22.70;;;14.50;99.90;;;;;;5073953;28;20501;-66
2023/09/22 02:02:57;;;;;;;29.20;21.40;;;14.50;99.90;;;;;;5056667;28;20052;-66
2023/09/22 02:05:23;;;;;;;33.03;21.70;;;14.50;99.90;;;;;;5074704;28;20040;-66
2023/09/22 02:07:48;;;;;;;26.80;20.13;;;14.50;99.90;;;;;;5074230;28;20049;-66
2023/09/22 02:10:15;;;;;;;24.13;18.37;;;14.50;99.90;;;;;;5074812;28;20048;-66
2023/09/22 02:12:43;;;;;;;23.10;17.83;;;14.50;99.90;;;;;;5074252;28;20098;-66
2023/09/22 02:15:10;;;;;;;22.87;17.40;;;14.40;99.90;;;;;;5074201;28;20072;-67
2023/09/22 02:17:42;;;;;;;23.43;16.67;;;14.40;99.90;;;;;;5074762;28;20094;-66
2023/09/22 02:20:18;;;;;;;22.40;16.23;;;14.40;99.90;;;;;;5074079;28;20052;-66
2023/09/22 02:22:52;;;;;;;20.63;15.63;;;14.30;99.90;;;;;;5074101;28;20045;-66
2023/09/22 02:25:19;;;;;;;22.87;16.00;;;14.30;99.90;;;;;;5074061;28;20052;-66
2023/09/22 02:27:47;;;;;;;22.67;15.87;;;14.30;99.90;;;;;;5073930;28;20045;-66
2023/09/22 02:30:14;;;;;;;21.23;15.37;;;14.30;99.90;;;;;;5074208;28;20392;-66
2023/09/22 02:32:42;;;;;;;20.67;14.60;;;14.30;99.90;;;;;;5073904;28;20052;-66
2023/09/22 02:35:08;;;;;;;20.13;14.50;;;14.20;99.90;;;;;;5072926;28;20048;-67
2023/09/22 02:37:34;;;;;;;20.00;13.33;;;14.20;99.90;;;;;;5073840;28;20044;-66
2023/09/22 02:40:00;;;;;;;19.50;13.03;;;14.20;99.90;;;;;;5073822;28;20051;-66
2023/09/22 02:42:26;;;;;;;19.57;12.03;;;14.10;99.90;;;;;;5074320;28;20048;-66
2023/09/22 02:44:53;;;;;;;17.27;11.93;;;14.10;99.90;;;;;;5073620;28;20052;-66
2023/09/22 02:47:19;;;;;;;15.73;10.90;;;14.00;99.90;;;;;;5073632;28;20122;-66
2023/09/22 02:49:44;;;;;;;14.97;9.90;;;14.00;99.90;;;;;;5073740;28;20480;-66
2023/09/22 02:52:10;;;;;;;14.17;8.87;;;13.90;99.90;;;;;;5073633;28;20480;-66
2023/09/22 02:54:36;;;;;;;13.70;8.37;;;13.90;99.90;;;;;;5073674;28;20392;-66
2023/09/22 02:57:04;;;;;;;13.37;7.97;;;13.90;99.90;;;;;;5073885;28;20047;-66
2023/09/22 02:59:30;;;;;;;13.63;8.83;;;13.80;99.90;;;;;;5074112;28;20048;-66
2023/09/22 03:01:55;;;;;;;13.27;8.30;;;13.80;99.90;;;;;;5072320;28;20064;-66
2023/09/22 03:04:21;;;;;;;12.57;7.67;;;13.80;99.90;;;;;;5073478;28;20049;-66
2023/09/22 03:06:47;;;;;;;12.63;7.20;;;13.80;99.90;;;;;;5073440;28;20101;-66
2023/09/22 03:09:14;;;;;;;11.43;7.43;;;13.70;99.90;;;;;;5073508;28;20051;-67
2023/09/22 03:11:41;;;;;;;12.33;6.87;;;13.70;99.90;;;;;;5073445;28;20064;-66
2023/09/22 03:14:07;;;;;;;10.03;6.87;;;13.70;99.90;;;;;;5073438;28;20051;-66
2023/09/22 03:16:33;;;;;;;10.07;6.60;;;13.70;99.90;;;;;;5073392;28;20049;-66
2023/09/22 03:18:59;;;;;;;10.07;6.37;;;13.70;99.90;;;;;;5073238;28;20128;-66
2023/09/22 03:21:25;;;;;;;10.83;6.37;;;13.70;99.90;;;;;;5072010;28;20084;-66
2023/09/22 03:23:54;;;;;;;11.27;6.57;;;13.70;99.90;;;;;;5073185;28;20041;-66
2023/09/22 03:26:21;;;;;;;9.27;6.40;;;13.70;99.90;;;;;;5073128;28;20056;-66
2023/09/22 03:28:48;;;;;;;11.57;6.20;;;13.70;99.90;;;;;;5073737;28;20091;-67
2023/09/22 03:31:15;;;;;;;11.60;5.70;;;13.70;99.90;;;;;;5073108;28;20036;-66
2023/09/22 03:33:40;;;;;;;10.07;5.80;;;13.70;99.90;;;;;;5073180;28;20131;-66
2023/09/22 03:36:10;;;;;;;9.87;5.90;;;13.70;99.90;;;;;;5073209;28;20455;-66
2023/09/22 03:38:41;;;;;;;9.37;5.70;;;13.70;99.90;;;;;;5075922;28;20040;-66
2023/09/22 03:41:06;;;;;;;10.07;5.83;;;13.70;99.90;;;;;;5077132;28;20049;-66
2023/09/22 03:43:33;;;;;;;8.40;5.83;;;13.70;99.90;;;;;;5077629;28;20135;-66
2023/09/22 03:45:59;;;;;;;9.10;6.40;;;13.70;99.90;;;;;;5077095;28;20052;-66
2023/09/22 03:48:25;;;;;;;10.23;6.80;;;13.70;99.90;;;;;;5077748;28;20045;-66
2023/09/22 03:50:51;;;;;;;11.93;7.00;;;13.60;99.90;;;;;;5076969;28;20071;-66
2023/09/22 03:53:17;;;;;;;10.73;7.67;;;13.60;99.90;;;;;;5076893;28;20147;-67
2023/09/22 03:55:46;;;;;;;12.73;8.00;;;13.60;99.90;;;;;;5076891;28;20044;-66
2023/09/22 03:58:12;;;;;;;9.87;7.33;;;13.60;99.90;;;;;;5077355;28;20045;-66
2023/09/22 04:00:38;;;;;;;10.10;7.53;;;13.60;99.90;;;;;;5077100;28;20130;-66
2023/09/22 04:03:07;;;;;;;12.67;8.13;;;13.50;99.90;;;;;;5076719;28;20052;-66
2023/09/22 04:05:33;;;;;;;9.93;7.60;;;13.60;99.90;;;;;;5076350;28;20566;-66
2023/09/22 04:08:00;;;;;;;9.03;7.17;;;13.50;99.90;;;;;;5076616;28;20048;-66
2023/09/22 04:10:26;;;;;;;14.17;7.23;;;13.60;99.90;;;;;;5076511;28;20056;-66
2023/09/22 04:12:52;;;;;;;11.93;7.23;;;13.60;99.90;;;;;;5076567;28;20056;-66
2023/09/22 04:15:17;;;;;;;11.30;7.20;;;13.60;99.90;;;;;;5076464;28;20052;-69
2023/09/22 04:17:45;;;;;;;10.00;7.57;;;13.60;99.90;;;;;;5076486;28;20127;-66
2023/09/22 04:20:12;;;;;;;13.83;8.40;;;13.50;99.90;;;;;;5077492;28;20353;-66
2023/09/22 04:22:38;;;;;;;15.60;9.17;;;13.50;99.90;;;;;;5076363;28;20060;-66
2023/09/22 04:25:11;;;;;;;13.10;9.10;;;13.50;99.90;;;;;;5076224;28;20110;-66
2023/09/22 04:27:43;;;;;;;16.10;9.70;;;13.50;99.90;;;;;;5075402;28;20070;-66
2023/09/22 04:30:11;;;;;;;16.30;11.00;;;13.50;99.90;;;;;;5076319;28;20123;-66
2023/09/22 04:32:38;;;;;;;19.17;11.17;;;13.50;99.90;;;;;;5076173;28;20048;-66
2023/09/22 04:35:07;;;;;;;21.13;12.70;;;13.50;99.90;;;;;;5076187;28;20091;-66
2023/09/22 04:37:33;;;;;;;21.40;13.60;;;13.50;99.90;;;;;;5076122;28;20041;-66
2023/09/22 04:39:59;;;;;;;25.53;15.60;;;13.60;99.90;;;;;;5076108;28;20043;-66
2023/09/22 04:42:25;;;;;;;26.63;16.17;;;13.60;99.90;;;;;;5076031;28;20050;-66
2023/09/22 04:44:51;;;;;;;34.80;18.00;;;13.60;99.90;;;;;;5075996;28;20110;-66
2023/09/22 04:47:17;;;;;;;32.60;18.77;;;13.70;99.90;;;;;;5076415;28;20041;-66
2023/09/22 04:49:43;;;;;;;34.80;20.67;;;13.70;99.90;;;;;;5074697;28;20048;-66
2023/09/22 04:52:08;;;;;;;36.10;21.27;;;13.70;99.90;;;;;;5075837;28;20473;-66
2023/09/22 04:54:34;;;;;;;36.20;21.93;;;13.70;99.90;;;;;;5075751;28;20131;-66
2023/09/22 04:57:00;;;;;;;33.07;19.70;;;13.70;99.90;;;;;;5076258;28;20052;-66
2023/09/22 04:59:26;;;;;;;33.30;19.73;;;13.70;99.90;;;;;;5075966;28;20591;-67
2023/09/22 05:01:52;;;;;;;35.30;20.33;;;13.60;99.90;;;;;;5075597;28;20504;-66
2023/09/22 05:04:18;;;;;;;32.63;19.73;;;13.60;99.90;;;;;;5075622;28;20139;-66
2023/09/22 05:06:44;;;;;;;29.53;18.93;;;13.70;99.90;;;;;;5075509;28;20091;-66
2023/09/22 05:09:10;;;;;;;31.00;17.67;;;13.70;99.90;;;;;;5075544;28;20106;-66
2023/09/22 05:11:36;;;;;;;32.37;18.50;;;13.70;99.90;;;;;;5075508;28;20119;-66
2023/09/22 05:14:05;;;;;;;33.63;19.87;;;13.60;99.90;;;;;;5075452;28;20198;-66
2023/09/22 05:16:32;;;;;;;32.97;20.90;;;13.60;99.90;;;;;;5075411;28;20049;-67
2023/09/22 05:18:59;;;;;;;28.87;19.83;;;13.60;99.90;;;;;;5075092;28;20044;-66
2023/09/22 05:21:25;;;;;;;31.53;19.53;;;13.60;99.90;;;;;;5075283;28;20412;-66
2023/09/22 05:23:51;;;;;;;31.67;21.13;;;13.60;99.90;;;;;;5075254;28;20082;-66
2023/09/22 05:26:17;;;;;;;38.13;22.13;;;13.60;99.90;;;;;;5075172;28;20488;-66
2023/09/22 05:28:43;;;;;;;35.57;22.50;;;13.60;99.90;;;;;;5074031;28;20080;-66
2023/09/22 05:31:09;;;;;;;37.03;21.67;;;13.50;99.90;;;;;;5074792;28;20500;-66
2023/09/22 05:33:38;;;;;;;38.73;22.57;;;13.50;99.90;;;;;;5075307;28;20044;-67
2023/09/22 05:36:05;;;;;;;39.27;23.43;;;13.50;99.90;;;;;;5073768;28;20045;-66
2023/09/22 05:38:31;;;;;;;37.00;23.10;;;13.50;99.90;;;;;;5075168;28;20110;-67
2023/09/22 05:40:58;;;;;;;40.57;24.13;;;13.50;99.90;;;;;;5075150;28;20040;-66
2023/09/22 05:43:24;;;;;;;37.70;22.80;;;13.60;99.90;;;;;;5075321;28;20052;-66
2023/09/22 05:45:56;;;;;;;41.47;24.17;;;13.60;99.90;;;;;;5075020;28;20045;-66
2023/09/22 05:48:22;;;;;;;43.00;24.30;;;13.50;99.90;;;;;;5075177;28;20051;-66
2023/09/22 05:50:59;;;;;;;43.37;24.10;;;13.60;99.90;;;;;;5074228;28;20048;-66
2023/09/22 05:53:25;;;;;;;43.77;24.50;;;13.50;99.90;;;;;;5074593;28;20131;-66
2023/09/22 05:56:10;;;;;;;43.80;24.33;;;13.50;99.90;;;;;;5074863;28;20424;-66
2023/09/22 05:58:39;;;;;;;43.22;23.88;;;13.50;99.90;;;;;;5073370;28;20048;-67
2023/09/22 06:01:09;;;;;;;40.10;22.20;;;13.50;99.90;;;;;;5072674;28;20508;-66
2023/09/22 06:03:37;;;;;;;43.43;25.70;;;13.50;99.90;;;;;;5074950;28;20393;-66
2023/09/22 06:06:14;;;;;;;36.37;22.57;;;13.50;99.90;;;;;;5074267;28;20044;-67
2023/09/22 06:08:44;;;;;;;44.77;24.67;;;13.50;99.90;;;;;;5074118;28;20102;-66
2023/09/22 06:11:10;;;;;;;44.43;27.90;;;13.50;99.90;;;;;;5073921;28;20106;-66
2023/09/22 06:13:37;;;;;;;46.80;27.60;;;13.50;99.90;;;;;;5074761;28;20051;-66
2023/09/22 06:16:04;;;;;;;49.30;29.10;;;13.60;99.90;;;;;;5074087;28;20044;-66
2023/09/22 06:18:30;;;;;;;44.70;26.90;;;13.60;99.90;;;;;;5074641;28;20380;-66
2023/09/22 06:20:57;;;;;;;38.10;25.73;;;13.60;99.90;;;;;;5074910;28;20056;-66
2023/09/22 06:23:26;;;;;;;40.57;24.27;;;13.60;99.90;;;;;;5073700;28;20067;-66
2023/09/22 06:25:54;;;;;;;38.63;23.63;;;13.60;99.90;;;;;;5074051;28;20044;-66
2023/09/22 06:28:20;;;;;;;42.43;24.83;;;13.70;99.90;;;;;;5072758;28;20040;-66
2023/09/22 06:30:47;;;;;;;36.00;24.20;;;13.70;99.90;;;;;;5073953;28;20091;-67
2023/09/22 06:33:16;;;;;;;48.23;26.10;;;13.70;99.90;;;;;;5073876;28;20480;-66
2023/09/22 06:35:46;;;;;;;26.63;15.50;;;13.80;99.90;;;;;;5073582;28;20412;-66
2023/09/22 06:38:13;;;;;;;48.70;27.60;;;13.80;99.90;;;;;;5073877;28;20452;-66
2023/09/22 06:40:39;;;;;;;44.53;24.63;;;13.80;99.90;;;;;;5056226;28;20135;-67
2023/09/22 06:43:05;;;;;;;43.23;25.37;;;13.80;99.90;;;;;;5073507;28;20492;-66
2023/09/22 06:45:34;;;;;;;50.10;26.80;;;13.80;99.90;;;;;;5074572;28;20391;-66
2023/09/22 06:48:00;;;;;;;34.53;18.53;;;13.80;99.90;;;;;;5073640;28;20089;-66
2023/09/22 06:50:27;;;;;;;47.73;27.70;;;13.80;99.90;;;;;;5073738;28;20056;-67
2023/09/22 06:52:53;;;;;;;43.23;25.23;;;13.80;99.90;;;;;;5073714;28;20052;-66
2023/09/22 06:55:19;;;;;;;46.13;23.03;;;13.80;99.90;;;;;;5073894;28;20052;-66
2023/09/22 06:57:45;;;;;;;35.50;19.77;;;13.80;99.90;;;;;;5072401;28;20084;-66
2023/09/22 07:00:23;;;;;;;50.60;30.17;;;13.80;99.90;;;;;;5073898;28;20045;-66
2023/09/22 07:02:49;;;;;;;40.73;23.60;;;13.90;99.90;;;;;;5074183;28;20052;-65
2023/09/22 07:05:15;;;;;;;39.77;24.97;;;13.90;99.90;;;;;;5073584;28;20441;-65
2023/09/22 07:07:41;;;;;;;42.10;26.03;;;13.90;99.90;;;;;;5073438;28;20079;-65
2023/09/22 07:10:11;;;;;;;38.90;24.63;;;13.80;99.90;;;;;;5073486;28;20045;-65
2023/09/22 07:12:41;;;;;;;36.43;23.80;;;13.90;99.90;;;;;;5073049;28;20123;-65
2023/09/22 07:15:07;;;;;;;34.13;23.33;;;13.90;99.90;;;;;;5073489;28;20169;-65
2023/09/22 07:17:34;;;;;;;37.10;22.53;;;13.90;99.90;;;;;;5073454;28;20090;-65
2023/09/22 07:20:01;;;;;;;30.33;20.90;;;13.90;99.90;;;;;;5073717;28;20054;-65
2023/09/22 07:22:29;;;;;;;29.43;21.40;;;13.90;99.90;;;;;;5073979;28;20053;-65
2023/09/22 07:24:55;;;;;;;31.40;21.33;;;13.90;99.90;;;;;;5073305;28;20048;-65
2023/09/22 07:27:23;;;;;;;30.20;20.63;;;13.90;99.90;;;;;;5073264;28;20098;-65
2023/09/22 07:29:50;;;;;;;28.83;19.57;;;13.90;99.90;;;;;;5073360;28;20052;-66
2023/09/22 07:32:16;;;;;;;36.40;20.67;;;13.90;99.90;;;;;;5073308;28;20043;-65
2023/09/22 07:34:42;;;;;;;27.03;18.53;;;13.90;99.90;;;;;;5073816;28;20037;-65
2023/09/22 07:37:11;;;;;;;31.23;19.03;;;14.00;99.90;;;;;;5073253;28;20068;-65
2023/09/22 07:39:40;;;;;;;29.67;19.70;;;14.00;99.90;;;;;;5072911;28;20550;-65
2023/09/22 07:42:09;;;;;;;28.40;20.13;;;14.00;99.90;;;;;;5073202;28;20044;-65
2023/09/22 07:44:35;;;;;;;29.93;20.23;;;14.10;99.90;;;;;;5073465;28;20386;-65
2023/09/22 07:47:03;;;;;;;31.13;19.87;;;14.10;99.90;;;;;;5073022;28;20163;-65
2023/09/22 07:49:29;;;;;;;26.43;19.33;;;14.10;99.90;;;;;;5073139;28;20055;-65
2023/09/22 07:51:55;;;;;;;27.17;18.73;;;14.20;99.90;;;;;;5073061;28;20131;-65
2023/09/22 07:54:21;;;;;;;28.07;18.60;;;14.30;99.90;;;;;;5073050;28;20122;-65
2023/09/22 07:56:47;;;;;;;24.67;17.20;;;14.40;99.90;;;;;;5072374;28;20060;-65
2023/09/22 07:59:16;;;;;;;22.43;17.13;;;14.40;99.90;;;;;;5073842;28;20047;-65
2023/09/22 08:01:43;;;;;;;23.40;16.67;;;14.40;99.90;;;;;;5072664;28;20060;-65
2023/09/22 08:04:12;;;;;;;21.57;16.03;;;14.40;99.90;;;;;;5072984;28;20053;-65
2023/09/22 08:06:38;;;;;;;24.20;16.53;;;14.40;99.90;;;;;;5072922;28;20049;-65
2023/09/22 08:09:04;;;;;;;19.43;15.07;;;14.40;99.90;;;;;;5072955;28;20040;-65
2023/09/22 08:11:31;;;;;;;24.20;16.00;;;14.40;99.90;;;;;;5072966;28;20123;-65
2023/09/22 08:13:58;;;;;;;23.67;16.93;;;14.50;99.90;;;;;;5071730;28;20052;-65
2023/09/22 08:16:25;;;;;;;22.20;16.63;;;14.50;99.90;;;;;;5073151;28;20091;-65
2023/09/22 08:18:51;;;;;;;21.10;15.97;;;14.50;99.90;;;;;;5072791;28;20056;-66
2023/09/22 08:21:17;;;;;;;17.80;15.83;;;14.60;99.90;;;;;;5072858;28;20040;-65
2023/09/22 08:23:42;;;;;;;17.00;13.53;;;14.60;99.90;;;;;;5073929;28;20131;-65
2023/09/22 08:26:08;;;;;;;17.73;13.60;;;14.70;99.90;;;;;;5076922;28;20044;-65
2023/09/22 08:28:34;;;;;;;15.23;12.60;;;14.90;99.90;;;;;;5075899;28;20044;-65
2023/09/22 08:31:00;;;;;;;13.77;11.67;;;15.10;99.90;;;;;;5076194;28;20091;-65
2023/09/22 08:33:26;;;;;;;18.77;12.47;;;15.20;99.90;;;;;;5076445;28;20131;-65
2023/09/22 08:35:52;;;;;;;15.73;12.27;;;15.20;99.90;;;;;;5074913;28;20044;-66
2023/09/22 08:38:21;;;;;;;14.17;11.63;;;15.30;99.90;;;;;;5076568;28;20045;-65
2023/09/22 08:40:47;;;;;;;16.57;12.87;;;15.30;99.90;;;;;;5076241;28;20489;-65
2023/09/22 08:43:13;;;;;;;16.50;12.33;;;15.30;99.90;;;;;;5075689;28;20570;-66
2023/09/22 08:45:40;;;;;;;15.87;12.13;;;15.30;99.90;;;;;;5075942;28;20044;-66
2023/09/22 08:48:06;;;;;;;12.33;10.97;;;15.40;99.90;;;;;;5076012;28;20041;-67
2023/09/22 08:50:32;;;;;;;14.10;11.07;;;15.40;99.90;;;;;;5075746;28;20477;-67
2023/09/22 08:52:57;;;;;;;14.13;10.37;;;15.40;99.90;;;;;;5076542;28;20041;-67
2023/09/22 08:55:23;;;;;;;14.43;10.37;;;15.40;99.90;;;;;;5075726;28;20051;-67
2023/09/22 08:57:52;;;;;;;14.63;9.33;;;15.40;99.90;;;;;;5075483;28;20053;-67
2023/09/22 09:00:20;;;;;;;11.70;9.00;;;15.40;99.90;;;;;;5074640;28;20503;-67
2023/09/22 09:02:50;;;;;;;10.87;8.83;;;15.40;99.90;;;;;;5076260;28;20494;-67
2023/09/22 09:05:20;;;;;;;10.03;8.13;;;15.40;99.90;;;;;;5076091;28;20049;-68
2023/09/22 09:07:49;;;;;;;10.70;7.90;;;15.30;99.90;;;;;;5075002;28;20051;-67
2023/09/22 09:10:34;;;;;;;11.57;7.30;;;15.30;99.90;;;;;;5075431;28;20150;-67
2023/09/22 09:13:01;;;;;;;8.98;8.00;;;15.20;99.90;;;;;;5075733;28;20281;-68
2023/09/22 09:15:29;;;;;;;10.33;7.23;;;15.30;99.90;;;;;;5074371;28;20040;-67
2023/09/22 09:18:06;;;;;;;9.63;6.30;;;15.30;99.90;;;;;;5075285;28;20041;-67
2023/09/22 09:20:36;;;;;;;9.00;5.90;;;15.30;99.90;;;;;;5075775;28;20044;-68
2023/09/22 09:23:19;;;;;;;8.87;4.30;;;15.30;99.90;;;;;;5075127;28;20040;-66
2023/09/22 09:25:50;;;;;;;8.83;3.90;;;15.30;99.90;;;;;;5074740;28;20377;-66
2023/09/22 09:28:17;;;;;;;8.07;3.17;;;15.40;99.90;;;;;;5074800;28;20515;-66
2023/09/22 09:30:52;;;;;;;5.17;3.03;;;15.40;99.90;;;;;;5074975;28;20504;-66
2023/09/22 09:33:23;;;;;;;5.63;3.10;;;15.50;99.90;;;;;;5075279;28;20083;-67
2023/09/22 09:35:50;;;;;;;5.80;3.00;;;15.60;99.90;;;;;;5056694;28;20056;-67
2023/09/22 09:38:17;;;;;;;5.10;3.03;;;15.60;99.90;;;;;;5074710;28;20044;-66
2023/09/22 09:40:43;;;;;;;7.47;2.57;;;15.60;99.90;;;;;;5074874;28;20056;-66
2023/09/22 09:43:11;;;;;;;7.13;2.50;;;15.70;99.90;;;;;;5075554;28;20128;-65
2023/09/22 09:45:44;;;;;;;5.63;2.30;;;15.70;99.90;;;;;;5074752;28;20203;-66
2023/09/22 09:48:17;;;;;;;5.90;2.20;;;15.70;99.90;;;;;;5074236;28;20432;-66
2023/09/22 09:50:50;;;;;;;5.40;2.78;;;15.80;99.90;;;;;;5075490;28;20045;-67
2023/09/22 09:53:42;;;;;;;7.13;2.50;;;15.70;99.90;;;;;;5074211;28;20484;-66
2023/09/22 09:56:11;;;;;;;7.10;2.30;;;15.80;99.90;;;;;;5074541;28;20048;-66
2023/09/22 09:58:37;;;;;;;5.17;2.10;;;15.80;99.90;;;;;;5074465;28;20048;-65
2023/09/22 10:01:05;;;;;;;6.10;2.37;;;15.80;99.90;;;;;;5074282;28;20057;-66
2023/09/22 10:03:33;;;;;;;5.00;2.20;;;15.80;99.90;;;;;;5074308;28;20056;-65
2023/09/22 10:06:02;;;;;;;4.33;2.17;;;15.90;99.90;;;;;;5074514;28;20423;-65
2023/09/22 10:08:28;;;;;;;4.77;2.23;;;16.00;99.90;;;;;;5074706;28;20041;-65
2023/09/22 10:10:58;;;;;;;6.17;2.17;;;16.10;99.90;;;;;;5074144;28;20384;-65
2023/09/22 10:13:24;;;;;;;4.33;2.00;;;16.10;99.90;;;;;;5074140;28;20477;-65
2023/09/22 10:15:58;;;;;;;5.07;2.10;;;16.10;99.90;;;;;;5073751;28;20053;-65
2023/09/22 10:18:45;;;;;;;4.47;2.22;;;16.00;99.90;;;;;;5074102;28;20457;-65
2023/09/22 10:21:29;;;;;;;4.57;2.30;;;16.00;99.90;;;;;;5075005;28;20088;-65
2023/09/22 10:24:20;;;;;;;5.37;1.70;;;16.00;99.90;;;;;;5073928;28;20397;-65
2023/09/22 10:27:03;;;;;;;3.83;1.77;;;16.00;99.90;;;;;;5073824;28;20052;-65
2023/09/22 10:29:35;;;;;;;3.70;1.80;;;16.00;99.90;;;;;;5074122;28;20098;-65
2023/09/22 10:32:20;;;;;;;4.63;1.60;;;16.10;99.90;;;;;;5073780;28;20052;-65
2023/09/22 10:34:47;;;;;;;;;;;16.20;99.90;;;;;;5074329;28;20052;-65
2023/09/22 10:37:14;;;;;;;5.93;2.13;;;16.20;99.90;;;;;;5073873;28;19921;-66
2023/09/22 10:39:51;;;;;;;4.17;1.83;;;16.20;99.90;;;;;;5073865;28;20071;-65
2023/09/22 10:42:17;;;;;;;3.23;1.97;;;16.30;99.90;;;;;;5074608;28;20067;-65
2023/09/22 10:44:59;;;;;;;4.40;1.93;;;16.30;99.90;;;;;;5074386;28;20131;-65
2023/09/22 10:47:36;;;;;;;3.77;1.67;;;16.30;99.90;;;;;;5072874;28;20084;-65
2023/09/22 10:50:30;;;;;;;3.27;1.60;;;16.40;99.90;;;;;;5073809;28;20086;-65
2023/09/22 10:52:58;;;;;;;5.13;1.70;;;16.50;99.90;;;;;;5073728;28;20040;-65
2023/09/22 10:55:36;;;;;;;5.80;1.90;;;16.50;99.90;;;;;;5074437;28;20049;-65
2023/09/22 10:58:07;;;;;;;2.70;1.50;;;16.50;99.90;;;;;;5073667;28;20373;-65
2023/09/22 11:00:42;;;;;;;3.67;2.00;;;16.50;99.90;;;;;;5073503;28;20063;-65
2023/09/22 11:03:10;;;;;;;6.00;2.00;;;16.60;99.90;;;;;;5074280;28;20469;-65
2023/09/22 11:05:40;;;;;;;3.73;1.90;;;16.60;99.90;;;;;;5073583;28;20481;-67
2023/09/22 11:08:13;;;;;;;4.83;1.97;;;16.60;99.90;;;;;;5073091;28;20070;-65
2023/09/22 11:10:43;;;;;;;4.27;1.77;;;16.70;99.90;;;;;;5073421;28;20136;-65
2023/09/22 11:13:09;;;;;;;4.23;1.70;;;16.70;99.90;;;;;;5073407;28;20054;-65
2023/09/22 11:15:45;;;;;;;4.10;1.93;;;16.70;99.90;;;;;;5073909;28;20127;-65
2023/09/22 11:18:28;;;;;;;3.93;1.70;;;16.70;99.90;;;;;;5073714;28;20447;-67
2023/09/22 11:20:58;;;;;;;4.43;1.87;;;16.70;99.90;;;;;;5073588;28;20049;-65
2023/09/22 11:23:27;;;;;;;6.33;1.90;;;16.70;99.90;;;;;;5073602;28;20044;-65
2023/09/22 11:25:55;;;;;;;5.23;1.67;;;16.60;99.90;;;;;;5073253;28;20053;-65
2023/09/22 11:28:20;;;;;;;7.73;1.83;;;16.70;99.90;;;;;;5073141;28;20078;-65
2023/09/22 11:30:48;;;;;;;3.53;1.40;;;16.70;99.90;;;;;;5073178;28;20388;-65
2023/09/22 11:33:17;;;;;;;3.30;1.50;;;16.70;99.90;;;;;;5073082;28;20051;-65
2023/09/22 11:35:43;;;;;;;2.23;1.30;;;16.70;99.90;;;;;;5073098;28;20084;-65
2023/09/22 11:38:25;;;;;;;5.50;1.40;;;16.80;99.90;;;;;;5073876;28;20064;-65
2023/09/22 11:41:01;;;;;;;5.30;1.60;;;16.80;99.90;;;;;;5073629;28;20059;-65
2023/09/22 11:43:27;;;;;;;5.23;1.87;;;16.90;99.90;;;;;;5072034;28;20561;-65
2023/09/22 11:46:11;;;;;;;3.53;1.60;;;16.90;99.90;;;;;;5072921;28;20055;-65
2023/09/22 11:48:59;;;;;;;4.23;1.80;;;16.90;99.90;;;;;;5072901;28;20045;-65
2023/09/22 11:51:40;;;;;;;4.17;1.50;;;16.90;99.90;;;;;;5071925;28;20392;-65
2023/09/22 11:54:11;;;;;;;3.53;1.70;;;16.90;99.90;;;;;;5072907;28;20083;-65
2023/09/22 11:56:37;;;;;;;5.23;1.50;;;17.00;99.90;;;;;;5072899;28;20036;-65
2023/09/22 11:59:05;;;;;;;3.17;1.40;;;17.00;99.90;;;;;;5074677;28;20051;-66
2023/09/22 12:01:31;;;;;;;4.33;1.70;;;17.10;99.90;;;;;;5076441;28;20088;-65
2023/09/22 12:03:58;;;;;;;3.43;1.50;;;17.10;99.90;;;;;;5077169;28;20055;-65
2023/09/22 12:06:23;;;;;;;6.27;1.67;;;17.20;99.90;;;;;;5076579;28;20109;-65
2023/09/22 12:08:49;;;;;;;4.37;1.40;;;17.10;99.90;;;;;;5076344;28;20045;-65
2023/09/22 12:11:15;;;;;;;4.43;1.83;;;17.10;99.90;;;;;;5076318;28;20388;-65
2023/09/22 12:13:40;;;;;;;4.07;1.40;;;17.10;99.90;;;;;;5076469;28;20072;-65
2023/09/22 12:16:06;;;;;;;4.03;1.50;;;17.10;99.90;;;;;;5076757;28;20075;-65
2023/09/22 12:18:32;;;;;;;4.20;1.53;;;17.20;99.90;;;;;;5076893;28;20041;-65
2023/09/22 12:20:58;;;;;;;3.10;1.30;;;17.20;99.90;;;;;;5076237;28;20131;-64
2023/09/22 12:23:23;;;;;;;4.60;1.53;;;17.20;99.90;;;;;;5075182;28;20074;-65
2023/09/22 12:25:52;;;;;;;4.40;1.63;;;17.20;99.90;;;;;;5076359;28;20055;-65
2023/09/22 12:28:18;;;;;;;4.93;1.60;;;17.30;99.90;;;;;;5076187;28;20095;-67
2023/09/22 12:30:44;;;;;;;3.93;1.60;;;17.30;99.90;;;;;;5076395;28;20049;-65
2023/09/22 12:33:10;;;;;;;3.67;1.67;;;17.30;99.90;;;;;;5076178;28;20439;-65
2023/09/22 12:35:38;;;;;;;5.20;1.40;;;17.30;99.90;;;;;;5076115;28;20127;-65
2023/09/22 12:38:04;;;;;;;4.73;1.70;;;17.30;99.90;;;;;;5075696;28;20369;-65